sensor_id;sensor_type;location;lat;lon;timestamp;P1;durP1;ratioP1;P2;durP2;ratioP2
31652;SDS011;18261;53.648;9.910;2023-02-26T00:00:20;6.63;;;1.83;;
31652;SDS011;18261;53.648;9.910;2023-02-26T00:02:46;14.00;;;3.03;;
31652;SDS011;18261;53.648;9.910;2023-02-26T00:05:13;9.35;;;2.65;;
31652;SDS011;18261;53.648;9.910;2023-02-26T00:07:39;10.20;;;1.95;;
31652;SDS011;18261;53.648;9.910;2023-02-26T00:10:06;10.02;;;1.80;;
31652;SDS011;18261;53.648;9.910;2023-02-26T00:12:33;9.15;;;2.35;;
31652;SDS011;18261;53.648;9.910;2023-02-26T00:14:59;10.10;;;1.80;;
31652;SDS011;18261;53.648;9.910;2023-02-26T00:19:55;6.95;;;1.55;;
31652;SDS011;18261;53.648;9.910;2023-02-26T00:22:21;9.40;;;1.55;;
31652;SDS011;18261;53.648;9.910;2023-02-26T00:24:47;8.38;;;1.75;;
31652;SDS011;18261;53.648;9.910;2023-02-26T00:27:13;6.50;;;1.60;;
31652;SDS011;18261;53.648;9.910;2023-02-26T00:29:39;14.77;;;2.28;;
31652;SDS011;18261;53.648;9.910;2023-02-26T00:32:05;6.97;;;1.50;;
31652;SDS011;18261;53.648;9.910;2023-02-26T00:34:32;8.70;;;1.83;;
31652;SDS011;18261;53.648;9.910;2023-02-26T00:42:02;9.98;;;1.92;;
31652;SDS011;18261;53.648;9.910;2023-02-26T00:44:28;11.00;;;1.65;;
31652;SDS011;18261;53.648;9.910;2023-02-26T00:46:57;8.52;;;1.52;;
31652;SDS011;18261;53.648;9.910;2023-02-26T00:52:09;6.97;;;1.73;;
31652;SDS011;18261;53.648;9.910;2023-02-26T00:54:37;7.50;;;1.35;;
31652;SDS011;18261;53.648;9.910;2023-02-26T00:57:03;7.65;;;1.80;;
31652;SDS011;18261;53.648;9.910;2023-02-26T00:59:30;9.82;;;1.80;;
31652;SDS011;18261;53.648;9.910;2023-02-26T01:01:56;9.55;;;1.63;;
31652;SDS011;18261;53.648;9.910;2023-02-26T01:04:23;9.52;;;2.20;;
31652;SDS011;18261;53.648;9.910;2023-02-26T01:06:50;8.45;;;1.88;;
31652;SDS011;18261;53.648;9.910;2023-02-26T01:09:23;7.85;;;2.08;;
31652;SDS011;18261;53.648;9.910;2023-02-26T01:11:50;8.18;;;1.25;;
31652;SDS011;18261;53.648;9.910;2023-02-26T01:14:17;6.18;;;1.65;;
31652;SDS011;18261;53.648;9.910;2023-02-26T01:16:56;5.53;;;1.52;;
31652;SDS011;18261;53.648;9.910;2023-02-26T01:22:12;7.35;;;1.98;;
31652;SDS011;18261;53.648;9.910;2023-02-26T01:24:40;11.45;;;2.08;;
31652;SDS011;18261;53.648;9.910;2023-02-26T01:27:06;6.05;;;1.88;;
31652;SDS011;18261;53.648;9.910;2023-02-26T01:29:32;4.70;;;1.67;;
31652;SDS011;18261;53.648;9.910;2023-02-26T01:42:22;5.60;;;1.98;;
31652;SDS011;18261;53.648;9.910;2023-02-26T01:47:36;11.45;;;2.28;;
31652;SDS011;18261;53.648;9.910;2023-02-26T01:50:11;8.95;;;2.10;;
31652;SDS011;18261;53.648;9.910;2023-02-26T01:55:13;7.93;;;2.00;;
31652;SDS011;18261;53.648;9.910;2023-02-26T01:57:40;13.68;;;2.10;;
31652;SDS011;18261;53.648;9.910;2023-02-26T02:00:06;12.75;;;2.05;;
31652;SDS011;18261;53.648;9.910;2023-02-26T02:02:32;11.75;;;2.72;;
31652;SDS011;18261;53.648;9.910;2023-02-26T02:05:01;8.23;;;2.15;;
31652;SDS011;18261;53.648;9.910;2023-02-26T02:07:29;13.68;;;3.85;;
31652;SDS011;18261;53.648;9.910;2023-02-26T02:09:55;15.07;;;2.88;;
31652;SDS011;18261;53.648;9.910;2023-02-26T02:22:39;8.88;;;2.05;;
31652;SDS011;18261;53.648;9.910;2023-02-26T02:30:08;11.10;;;2.28;;
31652;SDS011;18261;53.648;9.910;2023-02-26T02:32:51;10.45;;;2.38;;
31652;SDS011;18261;53.648;9.910;2023-02-26T02:37:56;5.95;;;2.10;;
31652;SDS011;18261;53.648;9.910;2023-02-26T02:40:24;5.93;;;1.85;;
31652;SDS011;18261;53.648;9.910;2023-02-26T02:43:00;12.15;;;2.03;;
31652;SDS011;18261;53.648;9.910;2023-02-26T02:47:54;7.03;;;1.92;;
31652;SDS011;18261;53.648;9.910;2023-02-26T02:50:42;9.30;;;2.30;;
31652;SDS011;18261;53.648;9.910;2023-02-26T02:53:13;7.13;;;1.75;;
31652;SDS011;18261;53.648;9.910;2023-02-26T02:55:43;13.18;;;2.03;;
31652;SDS011;18261;53.648;9.910;2023-02-26T02:58:12;9.60;;;2.40;;
31652;SDS011;18261;53.648;9.910;2023-02-26T03:00:41;11.93;;;2.72;;
31652;SDS011;18261;53.648;9.910;2023-02-26T03:03:25;12.05;;;4.43;;
31652;SDS011;18261;53.648;9.910;2023-02-26T03:05:52;12.43;;;3.95;;
31652;SDS011;18261;53.648;9.910;2023-02-26T03:08:20;13.30;;;3.50;;
31652;SDS011;18261;53.648;9.910;2023-02-26T03:10:46;14.48;;;3.30;;
31652;SDS011;18261;53.648;9.910;2023-02-26T03:13:16;10.95;;;2.28;;
31652;SDS011;18261;53.648;9.910;2023-02-26T03:15:55;8.00;;;2.08;;
31652;SDS011;18261;53.648;9.910;2023-02-26T03:18:29;12.75;;;2.25;;
31652;SDS011;18261;53.648;9.910;2023-02-26T03:21:33;11.77;;;2.45;;
31652;SDS011;18261;53.648;9.910;2023-02-26T03:23:56;11.70;;;2.22;;
31652;SDS011;18261;53.648;9.910;2023-02-26T03:26:24;11.70;;;2.40;;
31652;SDS011;18261;53.648;9.910;2023-02-26T03:29:00;13.32;;;2.35;;
31652;SDS011;18261;53.648;9.910;2023-02-26T03:31:32;9.77;;;2.10;;
31652;SDS011;18261;53.648;9.910;2023-02-26T03:36:37;9.10;;;1.88;;
31652;SDS011;18261;53.648;9.910;2023-02-26T03:39:06;6.03;;;2.00;;
31652;SDS011;18261;53.648;9.910;2023-02-26T03:44:32;7.78;;;1.85;;
31652;SDS011;18261;53.648;9.910;2023-02-26T03:47:00;3.88;;;1.90;;
31652;SDS011;18261;53.648;9.910;2023-02-26T03:49:32;7.15;;;2.58;;
31652;SDS011;18261;53.648;9.910;2023-02-26T03:51:59;13.30;;;2.83;;
31652;SDS011;18261;53.648;9.910;2023-02-26T03:54:27;15.20;;;2.10;;
31652;SDS011;18261;53.648;9.910;2023-02-26T03:56:54;9.98;;;2.25;;
31652;SDS011;18261;53.648;9.910;2023-02-26T03:59:20;7.00;;;1.92;;
31652;SDS011;18261;53.648;9.910;2023-02-26T04:07:06;13.18;;;3.42;;
31652;SDS011;18261;53.648;9.910;2023-02-26T04:09:32;16.10;;;3.58;;
31652;SDS011;18261;53.648;9.910;2023-02-26T04:11:58;9.65;;;2.35;;
31652;SDS011;18261;53.648;9.910;2023-02-26T04:14:24;6.15;;;1.92;;
31652;SDS011;18261;53.648;9.910;2023-02-26T04:16:50;11.52;;;2.45;;
31652;SDS011;18261;53.648;9.910;2023-02-26T04:19:16;6.88;;;2.08;;
31652;SDS011;18261;53.648;9.910;2023-02-26T04:21:43;9.65;;;1.88;;
31652;SDS011;18261;53.648;9.910;2023-02-26T04:24:09;15.18;;;2.35;;
31652;SDS011;18261;53.648;9.910;2023-02-26T04:26:35;9.88;;;2.08;;
31652;SDS011;18261;53.648;9.910;2023-02-26T04:29:01;8.80;;;2.45;;
31652;SDS011;18261;53.648;9.910;2023-02-26T04:31:27;11.10;;;2.35;;
31652;SDS011;18261;53.648;9.910;2023-02-26T04:33:53;5.35;;;1.73;;
31652;SDS011;18261;53.648;9.910;2023-02-26T04:36:19;11.68;;;1.67;;
31652;SDS011;18261;53.648;9.910;2023-02-26T04:38:46;6.30;;;1.98;;
31652;SDS011;18261;53.648;9.910;2023-02-26T04:41:12;7.57;;;1.88;;
31652;SDS011;18261;53.648;9.910;2023-02-26T04:43:38;7.38;;;1.85;;
31652;SDS011;18261;53.648;9.910;2023-02-26T04:46:04;10.40;;;2.88;;
31652;SDS011;18261;53.648;9.910;2023-02-26T04:48:30;9.65;;;2.60;;
31652;SDS011;18261;53.648;9.910;2023-02-26T04:50:56;13.93;;;2.58;;
31652;SDS011;18261;53.648;9.910;2023-02-26T04:53:22;8.25;;;2.45;;
31652;SDS011;18261;53.648;9.910;2023-02-26T04:55:48;8.30;;;2.17;;
31652;SDS011;18261;53.648;9.910;2023-02-26T04:58:14;7.63;;;2.42;;
31652;SDS011;18261;53.648;9.910;2023-02-26T05:00:40;13.93;;;2.58;;
31652;SDS011;18261;53.648;9.910;2023-02-26T05:03:06;9.77;;;2.13;;
31652;SDS011;18261;53.648;9.910;2023-02-26T05:05:33;9.23;;;1.90;;
31652;SDS011;18261;53.648;9.910;2023-02-26T05:08:00;8.98;;;2.35;;
31652;SDS011;18261;53.648;9.910;2023-02-26T05:10:26;9.70;;;2.00;;
31652;SDS011;18261;53.648;9.910;2023-02-26T05:12:52;7.97;;;2.45;;
31652;SDS011;18261;53.648;9.910;2023-02-26T05:15:18;9.15;;;1.80;;
31652;SDS011;18261;53.648;9.910;2023-02-26T05:17:45;8.50;;;2.00;;
31652;SDS011;18261;53.648;9.910;2023-02-26T05:20:11;10.55;;;1.90;;
31652;SDS011;18261;53.648;9.910;2023-02-26T05:22:39;15.73;;;2.20;;
31652;SDS011;18261;53.648;9.910;2023-02-26T05:25:05;9.82;;;1.92;;
31652;SDS011;18261;53.648;9.910;2023-02-26T05:27:32;8.80;;;1.98;;
31652;SDS011;18261;53.648;9.910;2023-02-26T05:29:58;10.10;;;1.75;;
31652;SDS011;18261;53.648;9.910;2023-02-26T05:32:24;6.82;;;1.67;;
31652;SDS011;18261;53.648;9.910;2023-02-26T05:34:50;9.32;;;1.67;;
31652;SDS011;18261;53.648;9.910;2023-02-26T05:37:16;8.95;;;1.75;;
31652;SDS011;18261;53.648;9.910;2023-02-26T05:39:42;9.80;;;1.95;;
31652;SDS011;18261;53.648;9.910;2023-02-26T05:42:08;9.45;;;2.33;;
31652;SDS011;18261;53.648;9.910;2023-02-26T05:44:34;10.20;;;1.90;;
31652;SDS011;18261;53.648;9.910;2023-02-26T05:47:00;12.50;;;1.95;;
31652;SDS011;18261;53.648;9.910;2023-02-26T05:49:26;11.15;;;1.88;;
31652;SDS011;18261;53.648;9.910;2023-02-26T05:51:52;11.52;;;2.60;;
31652;SDS011;18261;53.648;9.910;2023-02-26T05:54:19;9.13;;;2.05;;
31652;SDS011;18261;53.648;9.910;2023-02-26T05:56:45;12.32;;;2.40;;
31652;SDS011;18261;53.648;9.910;2023-02-26T05:59:11;6.20;;;1.70;;
31652;SDS011;18261;53.648;9.910;2023-02-26T06:01:37;10.27;;;2.03;;
31652;SDS011;18261;53.648;9.910;2023-02-26T06:04:03;7.78;;;2.03;;
31652;SDS011;18261;53.648;9.910;2023-02-26T06:06:29;5.65;;;2.00;;
31652;SDS011;18261;53.648;9.910;2023-02-26T06:08:55;7.88;;;1.98;;
31652;SDS011;18261;53.648;9.910;2023-02-26T06:11:21;7.43;;;1.98;;
31652;SDS011;18261;53.648;9.910;2023-02-26T06:13:47;15.88;;;2.40;;
31652;SDS011;18261;53.648;9.910;2023-02-26T06:16:13;7.68;;;1.77;;
31652;SDS011;18261;53.648;9.910;2023-02-26T06:18:39;12.30;;;2.60;;
31652;SDS011;18261;53.648;9.910;2023-02-26T06:21:05;10.02;;;3.03;;
31652;SDS011;18261;53.648;9.910;2023-02-26T06:23:31;14.13;;;2.20;;
31652;SDS011;18261;53.648;9.910;2023-02-26T06:25:57;11.38;;;1.95;;
31652;SDS011;18261;53.648;9.910;2023-02-26T06:28:24;6.25;;;1.80;;
31652;SDS011;18261;53.648;9.910;2023-02-26T06:30:51;12.07;;;2.03;;
31652;SDS011;18261;53.648;9.910;2023-02-26T06:33:17;9.90;;;1.92;;
31652;SDS011;18261;53.648;9.910;2023-02-26T06:35:43;11.77;;;2.08;;
31652;SDS011;18261;53.648;9.910;2023-02-26T06:38:09;8.27;;;2.88;;
31652;SDS011;18261;53.648;9.910;2023-02-26T06:40:35;7.38;;;2.13;;
31652;SDS011;18261;53.648;9.910;2023-02-26T06:43:01;8.45;;;2.28;;
31652;SDS011;18261;53.648;9.910;2023-02-26T06:45:27;8.68;;;1.92;;
31652;SDS011;18261;53.648;9.910;2023-02-26T06:47:53;13.60;;;2.92;;
31652;SDS011;18261;53.648;9.910;2023-02-26T06:50:19;8.57;;;2.22;;
31652;SDS011;18261;53.648;9.910;2023-02-26T06:52:45;7.65;;;1.90;;
31652;SDS011;18261;53.648;9.910;2023-02-26T06:55:11;7.95;;;1.80;;
31652;SDS011;18261;53.648;9.910;2023-02-26T06:57:37;8.30;;;2.40;;
31652;SDS011;18261;53.648;9.910;2023-02-26T07:00:03;8.75;;;2.10;;
31652;SDS011;18261;53.648;9.910;2023-02-26T07:02:30;9.52;;;2.20;;
31652;SDS011;18261;53.648;9.910;2023-02-26T07:04:56;9.57;;;2.45;;
31652;SDS011;18261;53.648;9.910;2023-02-26T07:07:21;10.82;;;2.20;;
31652;SDS011;18261;53.648;9.910;2023-02-26T07:09:47;8.18;;;2.30;;
31652;SDS011;18261;53.648;9.910;2023-02-26T07:12:13;8.32;;;2.33;;
31652;SDS011;18261;53.648;9.910;2023-02-26T07:14:39;9.98;;;2.40;;
31652;SDS011;18261;53.648;9.910;2023-02-26T07:17:07;11.15;;;2.65;;
31652;SDS011;18261;53.648;9.910;2023-02-26T07:19:33;8.23;;;2.17;;
31652;SDS011;18261;53.648;9.910;2023-02-26T07:21:59;15.32;;;2.33;;
31652;SDS011;18261;53.648;9.910;2023-02-26T07:24:25;5.90;;;1.98;;
31652;SDS011;18261;53.648;9.910;2023-02-26T07:26:51;11.05;;;2.10;;
31652;SDS011;18261;53.648;9.910;2023-02-26T07:29:17;7.00;;;2.22;;
31652;SDS011;18261;53.648;9.910;2023-02-26T07:31:43;8.60;;;2.13;;
31652;SDS011;18261;53.648;9.910;2023-02-26T07:34:09;10.35;;;2.47;;
31652;SDS011;18261;53.648;9.910;2023-02-26T07:36:35;6.97;;;2.00;;
31652;SDS011;18261;53.648;9.910;2023-02-26T07:39:01;11.57;;;2.55;;
31652;SDS011;18261;53.648;9.910;2023-02-26T07:41:27;13.60;;;3.80;;
31652;SDS011;18261;53.648;9.910;2023-02-26T07:43:53;12.70;;;3.20;;
31652;SDS011;18261;53.648;9.910;2023-02-26T07:46:19;13.77;;;2.83;;
31652;SDS011;18261;53.648;9.910;2023-02-26T07:48:45;10.27;;;2.38;;
31652;SDS011;18261;53.648;9.910;2023-02-26T07:51:11;13.25;;;2.75;;
31652;SDS011;18261;53.648;9.910;2023-02-26T07:53:37;8.45;;;2.20;;
31652;SDS011;18261;53.648;9.910;2023-02-26T07:56:03;8.70;;;2.17;;
31652;SDS011;18261;53.648;9.910;2023-02-26T07:58:29;13.40;;;3.10;;
31652;SDS011;18261;53.648;9.910;2023-02-26T08:00:56;11.70;;;3.17;;
31652;SDS011;18261;53.648;9.910;2023-02-26T08:03:23;6.25;;;2.60;;
31652;SDS011;18261;53.648;9.910;2023-02-26T08:05:49;11.88;;;2.92;;
31652;SDS011;18261;53.648;9.910;2023-02-26T08:08:14;12.88;;;2.55;;
31652;SDS011;18261;53.648;9.910;2023-02-26T08:10:41;6.30;;;2.28;;
31652;SDS011;18261;53.648;9.910;2023-02-26T08:13:07;8.07;;;2.28;;
31652;SDS011;18261;53.648;9.910;2023-02-26T08:15:33;12.85;;;2.70;;
31652;SDS011;18261;53.648;9.910;2023-02-26T08:17:59;8.45;;;1.98;;
31652;SDS011;18261;53.648;9.910;2023-02-26T08:20:25;7.35;;;2.15;;
31652;SDS011;18261;53.648;9.910;2023-02-26T08:22:51;19.10;;;3.35;;
31652;SDS011;18261;53.648;9.910;2023-02-26T08:25:17;7.20;;;2.13;;
31652;SDS011;18261;53.648;9.910;2023-02-26T08:27:43;11.20;;;2.78;;
31652;SDS011;18261;53.648;9.910;2023-02-26T08:30:09;11.07;;;2.53;;
31652;SDS011;18261;53.648;9.910;2023-02-26T08:32:36;8.23;;;2.17;;
31652;SDS011;18261;53.648;9.910;2023-02-26T08:35:03;10.77;;;2.17;;
31652;SDS011;18261;53.648;9.910;2023-02-26T08:37:29;12.35;;;2.15;;
31652;SDS011;18261;53.648;9.910;2023-02-26T08:39:55;13.38;;;2.15;;
31652;SDS011;18261;53.648;9.910;2023-02-26T08:42:21;5.32;;;2.05;;
31652;SDS011;18261;53.648;9.910;2023-02-26T08:44:47;9.93;;;2.00;;
31652;SDS011;18261;53.648;9.910;2023-02-26T08:47:13;6.55;;;1.58;;
31652;SDS011;18261;53.648;9.910;2023-02-26T08:49:39;8.85;;;2.08;;
31652;SDS011;18261;53.648;9.910;2023-02-26T08:52:05;5.75;;;2.20;;
31652;SDS011;18261;53.648;9.910;2023-02-26T08:54:31;6.03;;;2.08;;
31652;SDS011;18261;53.648;9.910;2023-02-26T08:56:57;4.90;;;1.70;;
31652;SDS011;18261;53.648;9.910;2023-02-26T08:59:24;6.72;;;1.98;;
31652;SDS011;18261;53.648;9.910;2023-02-26T09:01:50;7.47;;;1.90;;
31652;SDS011;18261;53.648;9.910;2023-02-26T09:04:16;5.85;;;1.85;;
31652;SDS011;18261;53.648;9.910;2023-02-26T09:06:42;6.88;;;1.90;;
31652;SDS011;18261;53.648;9.910;2023-02-26T09:09:08;6.55;;;1.95;;
31652;SDS011;18261;53.648;9.910;2023-02-26T09:11:34;4.85;;;1.80;;
31652;SDS011;18261;53.648;9.910;2023-02-26T09:14:01;4.75;;;1.52;;
31652;SDS011;18261;53.648;9.910;2023-02-26T09:16:27;10.40;;;1.85;;
31652;SDS011;18261;53.648;9.910;2023-02-26T09:18:54;8.27;;;2.38;;
31652;SDS011;18261;53.648;9.910;2023-02-26T09:21:20;12.20;;;2.30;;
31652;SDS011;18261;53.648;9.910;2023-02-26T09:23:46;5.72;;;1.75;;
31652;SDS011;18261;53.648;9.910;2023-02-26T09:26:12;7.45;;;1.77;;
31652;SDS011;18261;53.648;9.910;2023-02-26T09:28:39;7.53;;;2.05;;
31652;SDS011;18261;53.648;9.910;2023-02-26T09:31:05;10.07;;;2.33;;
31652;SDS011;18261;53.648;9.910;2023-02-26T09:33:31;6.32;;;1.98;;
31652;SDS011;18261;53.648;9.910;2023-02-26T09:35:57;4.28;;;1.58;;
31652;SDS011;18261;53.648;9.910;2023-02-26T09:38:23;8.15;;;1.80;;
31652;SDS011;18261;53.648;9.910;2023-02-26T09:40:50;6.18;;;1.63;;
31652;SDS011;18261;53.648;9.910;2023-02-26T09:46:05;4.88;;;1.35;;
31652;SDS011;18261;53.648;9.910;2023-02-26T09:48:35;5.45;;;1.73;;
31652;SDS011;18261;53.648;9.910;2023-02-26T09:51:03;2.85;;;1.33;;
31652;SDS011;18261;53.648;9.910;2023-02-26T09:53:37;6.90;;;1.92;;
31652;SDS011;18261;53.648;9.910;2023-02-26T09:56:18;7.60;;;1.98;;
31652;SDS011;18261;53.648;9.910;2023-02-26T09:58:46;6.70;;;2.10;;
31652;SDS011;18261;53.648;9.910;2023-02-26T10:01:17;7.18;;;2.50;;
31652;SDS011;18261;53.648;9.910;2023-02-26T10:13:46;6.95;;;1.40;;
31652;SDS011;18261;53.648;9.910;2023-02-26T10:16:20;3.50;;;1.42;;
31652;SDS011;18261;53.648;9.910;2023-02-26T10:18:51;5.28;;;1.70;;
31652;SDS011;18261;53.648;9.910;2023-02-26T10:21:25;2.95;;;1.17;;
31652;SDS011;18261;53.648;9.910;2023-02-26T10:23:56;7.70;;;2.15;;
31652;SDS011;18261;53.648;9.910;2023-02-26T10:26:24;4.80;;;1.40;;
31652;SDS011;18261;53.648;9.910;2023-02-26T10:41:43;2.85;;;1.42;;
31652;SDS011;18261;53.648;9.910;2023-02-26T10:44:31;4.20;;;1.33;;
31652;SDS011;18261;53.648;9.910;2023-02-26T10:47:11;5.30;;;1.20;;
31652;SDS011;18261;53.648;9.910;2023-02-26T10:52:16;5.30;;;1.52;;
31652;SDS011;18261;53.648;9.910;2023-02-26T10:55:25;6.03;;;1.50;;
31652;SDS011;18261;53.648;9.910;2023-02-26T10:57:36;4.47;;;1.30;;
31652;SDS011;18261;53.648;9.910;2023-02-26T11:00:04;5.65;;;1.80;;
31652;SDS011;18261;53.648;9.910;2023-02-26T11:02:38;3.40;;;1.13;;
31652;SDS011;18261;53.648;9.910;2023-02-26T11:05:06;4.80;;;1.70;;
31652;SDS011;18261;53.648;9.910;2023-02-26T11:07:32;6.85;;;1.30;;
31652;SDS011;18261;53.648;9.910;2023-02-26T11:10:00;7.10;;;1.77;;
31652;SDS011;18261;53.648;9.910;2023-02-26T11:12:26;3.55;;;1.20;;
31652;SDS011;18261;53.648;9.910;2023-02-26T11:14:52;5.43;;;1.75;;
31652;SDS011;18261;53.648;9.910;2023-02-26T11:17:23;8.05;;;1.70;;
31652;SDS011;18261;53.648;9.910;2023-02-26T11:19:56;6.32;;;2.17;;
31652;SDS011;18261;53.648;9.910;2023-02-26T11:22:24;4.32;;;1.40;;
31652;SDS011;18261;53.648;9.910;2023-02-26T11:24:51;5.82;;;1.70;;
31652;SDS011;18261;53.648;9.910;2023-02-26T11:27:33;9.10;;;2.10;;
31652;SDS011;18261;53.648;9.910;2023-02-26T11:30:03;5.70;;;1.98;;
31652;SDS011;18261;53.648;9.910;2023-02-26T11:32:33;8.82;;;1.83;;
31652;SDS011;18261;53.648;9.910;2023-02-26T11:34:59;5.80;;;1.70;;
31652;SDS011;18261;53.648;9.910;2023-02-26T11:38:09;7.18;;;2.00;;
31652;SDS011;18261;53.648;9.910;2023-02-26T11:40:21;6.90;;;2.25;;
31652;SDS011;18261;53.648;9.910;2023-02-26T11:42:54;6.20;;;1.88;;
31652;SDS011;18261;53.648;9.910;2023-02-26T11:45:21;11.02;;;2.17;;
31652;SDS011;18261;53.648;9.910;2023-02-26T11:47:48;9.93;;;1.95;;
31652;SDS011;18261;53.648;9.910;2023-02-26T11:50:19;8.55;;;2.03;;
31652;SDS011;18261;53.648;9.910;2023-02-26T11:52:47;7.05;;;1.88;;
31652;SDS011;18261;53.648;9.910;2023-02-26T11:55:32;8.00;;;2.00;;
31652;SDS011;18261;53.648;9.910;2023-02-26T11:57:58;4.20;;;1.85;;
31652;SDS011;18261;53.648;9.910;2023-02-26T12:02:50;7.78;;;1.90;;
31652;SDS011;18261;53.648;9.910;2023-02-26T12:05:21;7.72;;;1.83;;
31652;SDS011;18261;53.648;9.910;2023-02-26T12:07:47;6.82;;;1.70;;
31652;SDS011;18261;53.648;9.910;2023-02-26T12:10:14;10.93;;;2.67;;
31652;SDS011;18261;53.648;9.910;2023-02-26T12:15:30;20.85;;;10.82;;
31652;SDS011;18261;53.648;9.910;2023-02-26T12:18:14;8.95;;;3.58;;
31652;SDS011;18261;53.648;9.910;2023-02-26T12:23:30;6.28;;;2.15;;
31652;SDS011;18261;53.648;9.910;2023-02-26T12:28:46;6.35;;;1.92;;
31652;SDS011;18261;53.648;9.910;2023-02-26T12:36:21;6.35;;;1.80;;
31652;SDS011;18261;53.648;9.910;2023-02-26T12:38:54;6.63;;;2.05;;
31652;SDS011;18261;53.648;9.910;2023-02-26T12:41:26;7.85;;;2.65;;
31652;SDS011;18261;53.648;9.910;2023-02-26T12:43:54;8.02;;;3.17;;
31652;SDS011;18261;53.648;9.910;2023-02-26T13:20:33;6.32;;;2.80;;
31652;SDS011;18261;53.648;9.910;2023-02-26T13:23:03;7.00;;;2.00;;
31652;SDS011;18261;53.648;9.910;2023-02-26T13:25:40;5.28;;;1.88;;
31652;SDS011;18261;53.648;9.910;2023-02-26T13:30:46;12.32;;;2.22;;
31652;SDS011;18261;53.648;9.910;2023-02-26T13:33:18;9.75;;;3.00;;
31652;SDS011;18261;53.648;9.910;2023-02-26T13:35:45;14.30;;;3.67;;
31652;SDS011;18261;53.648;9.910;2023-02-26T13:40:46;12.07;;;4.20;;
31652;SDS011;18261;53.648;9.910;2023-02-26T13:43:33;10.75;;;4.43;;
31652;SDS011;18261;53.648;9.910;2023-02-26T13:48:37;8.05;;;2.28;;
31652;SDS011;18261;53.648;9.910;2023-02-26T13:56:07;9.10;;;2.05;;
31652;SDS011;18261;53.648;9.910;2023-02-26T14:03:50;18.80;;;2.47;;
31652;SDS011;18261;53.648;9.910;2023-02-26T14:08:46;7.93;;;2.05;;
31652;SDS011;18261;53.648;9.910;2023-02-26T14:14:17;7.03;;;1.70;;
31652;SDS011;18261;53.648;9.910;2023-02-26T14:16:47;10.00;;;2.05;;
31652;SDS011;18261;53.648;9.910;2023-02-26T14:21:47;9.65;;;2.20;;
31652;SDS011;18261;53.648;9.910;2023-02-26T14:24:15;5.22;;;1.50;;
31652;SDS011;18261;53.648;9.910;2023-02-26T14:26:49;6.55;;;1.83;;
31652;SDS011;18261;53.648;9.910;2023-02-26T14:34:50;11.00;;;1.77;;
31652;SDS011;18261;53.648;9.910;2023-02-26T14:37:24;14.00;;;2.03;;
31652;SDS011;18261;53.648;9.910;2023-02-26T14:42:32;6.05;;;1.52;;
31652;SDS011;18261;53.648;9.910;2023-02-26T14:45:02;6.18;;;2.00;;
31652;SDS011;18261;53.648;9.910;2023-02-26T14:47:31;7.05;;;2.03;;
31652;SDS011;18261;53.648;9.910;2023-02-26T14:49:57;4.90;;;1.55;;
31652;SDS011;18261;53.648;9.910;2023-02-26T15:05:40;13.37;;;3.77;;
31652;SDS011;18261;53.648;9.910;2023-02-26T15:20:34;5.63;;;1.60;;
31652;SDS011;18261;53.648;9.910;2023-02-26T15:23:05;5.75;;;1.50;;
31652;SDS011;18261;53.648;9.910;2023-02-26T15:25:34;4.47;;;1.45;;
31652;SDS011;18261;53.648;9.910;2023-02-26T15:28:01;10.40;;;2.20;;
31652;SDS011;18261;53.648;9.910;2023-02-26T15:30:29;7.05;;;2.35;;
31652;SDS011;18261;53.648;9.910;2023-02-26T15:32:56;5.90;;;1.90;;
31652;SDS011;18261;53.648;9.910;2023-02-26T15:35:22;8.65;;;2.10;;
31652;SDS011;18261;53.648;9.910;2023-02-26T15:37:50;5.03;;;1.63;;
31652;SDS011;18261;53.648;9.910;2023-02-26T15:40:17;7.07;;;1.83;;
31652;SDS011;18261;53.648;9.910;2023-02-26T15:42:43;11.63;;;3.05;;
31652;SDS011;18261;53.648;9.910;2023-02-26T15:50:33;6.20;;;1.60;;
31652;SDS011;18261;53.648;9.910;2023-02-26T15:53:02;4.63;;;1.67;;
31652;SDS011;18261;53.648;9.910;2023-02-26T15:55:38;9.77;;;2.20;;
31652;SDS011;18261;53.648;9.910;2023-02-26T15:58:07;4.88;;;1.70;;
31652;SDS011;18261;53.648;9.910;2023-02-26T16:00:34;8.98;;;2.20;;
31652;SDS011;18261;53.648;9.910;2023-02-26T16:03:00;6.18;;;2.72;;
31652;SDS011;18261;53.648;9.910;2023-02-26T16:05:28;5.80;;;2.17;;
31652;SDS011;18261;53.648;9.910;2023-02-26T16:07:55;7.57;;;2.22;;
31652;SDS011;18261;53.648;9.910;2023-02-26T16:10:31;9.13;;;2.08;;
31652;SDS011;18261;53.648;9.910;2023-02-26T16:12:58;6.93;;;2.50;;
31652;SDS011;18261;53.648;9.910;2023-02-26T16:15:28;10.35;;;2.83;;
31652;SDS011;18261;53.648;9.910;2023-02-26T16:17:56;6.22;;;1.75;;
31652;SDS011;18261;53.648;9.910;2023-02-26T16:20:25;7.68;;;2.40;;
31652;SDS011;18261;53.648;9.910;2023-02-26T16:23:01;8.50;;;2.78;;
31652;SDS011;18261;53.648;9.910;2023-02-26T16:25:38;13.50;;;3.22;;
31652;SDS011;18261;53.648;9.910;2023-02-26T16:28:15;7.70;;;1.83;;
31652;SDS011;18261;53.648;9.910;2023-02-26T16:30:43;7.13;;;2.22;;
31652;SDS011;18261;53.648;9.910;2023-02-26T16:33:12;7.95;;;3.00;;
31652;SDS011;18261;53.648;9.910;2023-02-26T16:35:43;7.72;;;2.25;;
31652;SDS011;18261;53.648;9.910;2023-02-26T16:38:11;7.00;;;2.20;;
31652;SDS011;18261;53.648;9.910;2023-02-26T16:40:39;9.02;;;2.47;;
31652;SDS011;18261;53.648;9.910;2023-02-26T16:43:28;7.70;;;2.95;;
31652;SDS011;18261;53.648;9.910;2023-02-26T16:45:58;8.90;;;2.00;;
31652;SDS011;18261;53.648;9.910;2023-02-26T16:48:25;6.15;;;1.90;;
31652;SDS011;18261;53.648;9.910;2023-02-26T16:50:59;11.60;;;2.50;;
31652;SDS011;18261;53.648;9.910;2023-02-26T16:54:29;7.95;;;1.88;;
31652;SDS011;18261;53.648;9.910;2023-02-26T16:56:23;6.07;;;2.10;;
31652;SDS011;18261;53.648;9.910;2023-02-26T16:58:53;12.80;;;2.35;;
31652;SDS011;18261;53.648;9.910;2023-02-26T17:01:21;13.35;;;4.35;;
31652;SDS011;18261;53.648;9.910;2023-02-26T17:03:52;13.57;;;5.60;;
31652;SDS011;18261;53.648;9.910;2023-02-26T17:06:22;9.38;;;3.65;;
31652;SDS011;18261;53.648;9.910;2023-02-26T17:11:31;11.30;;;3.30;;
31652;SDS011;18261;53.648;9.910;2023-02-26T17:16:29;11.57;;;3.30;;
31652;SDS011;18261;53.648;9.910;2023-02-26T17:18:55;14.90;;;3.53;;
31652;SDS011;18261;53.648;9.910;2023-02-26T17:21:21;11.80;;;3.13;;
31652;SDS011;18261;53.648;9.910;2023-02-26T17:23:47;13.88;;;3.65;;
31652;SDS011;18261;53.648;9.910;2023-02-26T17:26:13;11.35;;;3.00;;
31652;SDS011;18261;53.648;9.910;2023-02-26T17:28:40;12.00;;;3.85;;
31652;SDS011;18261;53.648;9.910;2023-02-26T17:31:06;10.98;;;3.47;;
31652;SDS011;18261;53.648;9.910;2023-02-26T17:33:33;11.10;;;4.03;;
31652;SDS011;18261;53.648;9.910;2023-02-26T17:36:00;15.80;;;4.78;;
31652;SDS011;18261;53.648;9.910;2023-02-26T17:38:27;13.93;;;5.55;;
31652;SDS011;18261;53.648;9.910;2023-02-26T17:40:53;15.00;;;5.93;;
31652;SDS011;18261;53.648;9.910;2023-02-26T17:43:23;20.58;;;8.70;;
31652;SDS011;18261;53.648;9.910;2023-02-26T17:45:49;26.05;;;10.35;;
31652;SDS011;18261;53.648;9.910;2023-02-26T17:48:15;20.25;;;7.65;;
31652;SDS011;18261;53.648;9.910;2023-02-26T17:50:54;19.38;;;6.47;;
31652;SDS011;18261;53.648;9.910;2023-02-26T17:53:21;12.63;;;4.30;;
31652;SDS011;18261;53.648;9.910;2023-02-26T17:55:48;14.32;;;3.90;;
31652;SDS011;18261;53.648;9.910;2023-02-26T17:58:21;12.10;;;3.47;;
31652;SDS011;18261;53.648;9.910;2023-02-26T18:00:48;9.70;;;2.85;;
31652;SDS011;18261;53.648;9.910;2023-02-26T18:03:17;13.70;;;3.92;;
31652;SDS011;18261;53.648;9.910;2023-02-26T18:05:44;11.90;;;4.07;;
31652;SDS011;18261;53.648;9.910;2023-02-26T18:08:18;17.83;;;5.05;;
31652;SDS011;18261;53.648;9.910;2023-02-26T18:10:45;19.65;;;6.18;;
31652;SDS011;18261;53.648;9.910;2023-02-26T18:13:11;23.27;;;8.55;;
31652;SDS011;18261;53.648;9.910;2023-02-26T18:15:37;19.33;;;6.65;;
31652;SDS011;18261;53.648;9.910;2023-02-26T18:18:03;15.88;;;4.10;;